createdAt,value
2023-04-14T00:00:10.439Z,4.70
2023-04-14T00:05:12.230Z,8.73
2023-04-14T00:10:11.159Z,3.83
2023-04-14T00:15:11.997Z,7.97
2023-04-14T00:20:11.258Z,5.60
2023-04-14T00:25:10.368Z,5.13
2023-04-14T00:30:11.413Z,4.13
2023-04-14T00:35:11.312Z,3.67
2023-04-14T00:40:12.070Z,4.17
2023-04-14T00:45:12.716Z,5.90
2023-04-14T00:50:12.077Z,4.33
2023-04-14T00:55:11.414Z,2.33
2023-04-14T01:00:14.167Z,2.53
2023-04-14T01:05:13.562Z,2.23
2023-04-14T01:10:12.844Z,2.60
2023-04-14T01:15:22.943Z,3.97
2023-04-14T01:20:28.803Z,3.80
2023-04-14T01:26:09.279Z,3.23
2023-04-14T01:31:27.251Z,5.23
2023-04-14T01:36:29.932Z,3.00
2023-04-14T01:41:31.705Z,4.40
2023-04-14T01:46:34.077Z,2.90
2023-04-14T01:51:35.312Z,4.70
2023-04-14T01:56:35.417Z,7.40
2023-04-14T02:01:37.602Z,4.33
2023-04-14T02:06:37.565Z,2.77
2023-04-14T02:11:36.885Z,3.07
2023-04-14T02:16:39.015Z,3.27
2023-04-14T02:21:39.341Z,2.97
2023-04-14T02:26:41.564Z,2.77
2023-04-14T02:31:47.549Z,3.13
2023-04-14T02:36:50.151Z,3.93
2023-04-14T02:41:54.854Z,6.93
2023-04-14T02:47:04.225Z,2.50
2023-04-14T02:52:08.132Z,2.80
2023-04-14T02:57:07.375Z,2.93
2023-04-14T03:02:13.617Z,3.00
2023-04-14T03:07:19.021Z,3.27
2023-04-14T03:12:19.013Z,3.03
2023-04-14T03:17:21.513Z,2.37
2023-04-14T03:22:23.593Z,3.23
2023-04-14T03:27:26.490Z,5.13
2023-04-14T03:32:30.761Z,5.60
2023-04-14T03:37:30.333Z,4.30
2023-04-14T03:42:31.441Z,2.83
2023-04-14T03:47:32.906Z,3.07
2023-04-14T03:52:36.787Z,3.10
2023-04-14T03:57:37.691Z,2.30
2023-04-14T04:02:38.967Z,3.20
2023-04-14T04:07:40.240Z,2.37
2023-04-14T04:12:40.318Z,3.23
2023-04-14T04:17:42.993Z,4.50
2023-04-14T04:22:43.445Z,1.80
2023-04-14T04:27:42.630Z,1.53
2023-04-14T04:32:47.666Z,2.23
2023-04-14T04:37:47.431Z,4.53
2023-04-14T04:42:46.420Z,1.90
2023-04-14T04:47:49.212Z,2.23
2023-04-14T04:52:47.433Z,1.73
2023-04-14T04:57:46.235Z,3.70
2023-04-14T05:02:45.004Z,7.60
2023-04-14T05:07:44.905Z,6.00
2023-04-14T05:12:43.383Z,5.33
2023-04-14T05:17:41.936Z,5.63
2023-04-14T05:22:40.426Z,8.13
2023-04-14T05:27:40.377Z,9.13
2023-04-14T05:32:38.859Z,7.57
2023-04-14T05:37:37.382Z,11.23
2023-04-14T05:42:35.838Z,8.20
2023-04-14T05:47:36.371Z,9.17
2023-04-14T05:52:34.875Z,7.53
2023-04-14T05:57:33.351Z,10.00
2023-04-14T06:02:31.946Z,12.10
2023-04-14T06:07:31.895Z,4.73
2023-04-14T06:12:30.607Z,9.70
2023-04-14T06:17:29.500Z,11.40
2023-04-14T06:22:29.681Z,8.93
2023-04-14T06:27:29.493Z,11.47
2023-04-14T06:32:27.965Z,14.30
2023-04-14T06:37:26.580Z,10.60
2023-04-14T06:42:25.071Z,10.73
2023-04-14T06:47:25.968Z,8.77
2023-04-14T06:52:24.501Z,10.00
2023-04-14T06:57:23.005Z,14.87
2023-04-14T07:02:21.563Z,14.00
2023-04-14T07:07:21.491Z,13.30
2023-04-14T07:12:20.280Z,9.10
2023-04-14T07:17:19.018Z,7.63
2023-04-14T07:22:17.928Z,12.27
2023-04-14T07:27:17.791Z,7.40
2023-04-14T07:32:16.326Z,11.17
2023-04-14T07:37:16.093Z,9.63
2023-04-14T07:42:14.590Z,9.43
2023-04-14T07:47:14.457Z,8.73
2023-04-14T07:52:12.929Z,11.40
2023-04-14T07:57:11.148Z,5.70
2023-04-14T08:02:09.792Z,7.60
2023-04-14T08:07:09.795Z,7.27
2023-04-14T08:12:08.335Z,6.93
2023-04-14T08:17:07.212Z,6.17
2023-04-14T08:22:05.799Z,5.00
2023-04-14T08:27:05.812Z,4.03
2023-04-14T08:32:05.194Z,9.43
2023-04-14T08:37:03.803Z,7.90
2023-04-14T08:42:02.630Z,6.30
2023-04-14T08:47:02.797Z,5.70
2023-04-14T08:52:04.620Z,8.50
2023-04-14T08:57:05.010Z,7.40
2023-04-14T09:02:06.869Z,4.43
2023-04-14T09:07:06.600Z,7.90
2023-04-14T09:12:05.752Z,3.97
2023-04-14T09:17:05.927Z,2.73
2023-04-14T09:22:04.482Z,3.93
2023-04-14T09:27:05.359Z,6.10
2023-04-14T09:32:06.296Z,3.23
2023-04-14T09:37:06.393Z,3.97
2023-04-14T09:42:05.708Z,5.80
2023-04-14T09:47:07.693Z,3.27
2023-04-14T09:52:08.742Z,3.10
2023-04-14T09:57:07.992Z,2.80
2023-04-14T10:02:09.519Z,3.43
2023-04-14T10:07:09.477Z,6.30
2023-04-14T10:12:10.362Z,3.07
2023-04-14T10:17:11.535Z,5.47
2023-04-14T10:22:10.731Z,3.47
2023-04-14T10:27:09.473Z,3.20
2023-04-14T10:32:11.547Z,4.50
2023-04-14T10:37:14.486Z,4.70
2023-04-14T10:42:12.862Z,7.17
2023-04-14T10:47:25.223Z,4.03
2023-04-14T10:52:33.521Z,3.27
2023-04-14T10:57:38.726Z,6.70
2023-04-14T11:02:38.766Z,6.27
2023-04-14T11:07:40.761Z,6.07
2023-04-14T11:12:44.738Z,5.10
2023-04-14T11:17:45.820Z,4.23
2023-04-14T11:22:46.146Z,4.43
2023-04-14T11:27:45.451Z,3.50
2023-04-14T11:32:50.595Z,7.20
2023-04-14T11:37:48.872Z,5.70
2023-04-14T11:42:48.433Z,4.20
2023-04-14T11:47:58.966Z,6.40
2023-04-14T11:52:59.746Z,5.50
2023-04-14T11:57:58.529Z,3.90
2023-04-14T12:02:58.900Z,4.50
2023-04-14T12:08:00.500Z,7.43
2023-04-14T12:13:02.687Z,4.57
2023-04-14T12:18:03.682Z,4.60
2023-04-14T12:23:06.711Z,5.50
2023-04-14T12:28:07.077Z,5.13
2023-04-14T12:33:12.342Z,4.43
2023-04-14T12:38:12.921Z,4.60
2023-04-14T12:43:11.466Z,7.03
2023-04-14T12:48:11.714Z,5.57
2023-04-14T12:53:26.428Z,7.60
2023-04-14T12:58:24.612Z,6.50
2023-04-14T13:03:25.046Z,5.17
2023-04-14T13:08:23.898Z,5.60
2023-04-14T13:13:22.340Z,4.03
2023-04-14T13:18:20.893Z,4.10
2023-04-14T13:23:20.748Z,5.50
2023-04-14T13:28:19.229Z,4.00
2023-04-14T13:33:17.888Z,6.67
2023-04-14T13:38:16.438Z,4.30
2023-04-14T13:43:17.562Z,4.67
2023-04-14T13:48:16.064Z,5.97
2023-04-14T13:53:14.192Z,3.57
2023-04-14T13:58:12.700Z,4.73
2023-04-14T14:03:12.833Z,3.20
2023-04-14T14:08:11.392Z,1.70
2023-04-14T14:13:10.601Z,2.00
2023-04-14T14:18:09.572Z,5.80
2023-04-14T14:23:12.296Z,4.17
2023-04-14T14:28:10.876Z,3.73
2023-04-14T14:33:09.896Z,6.30
2023-04-14T14:38:09.823Z,6.13
2023-04-14T14:43:08.277Z,7.03
2023-04-14T14:48:07.027Z,13.00
2023-04-14T14:53:05.475Z,5.47
2023-04-14T14:58:06.682Z,3.97
2023-04-14T15:03:05.753Z,5.50
2023-04-14T15:08:04.682Z,3.30
2023-04-14T15:13:05.681Z,5.70
2023-04-14T15:18:05.635Z,3.10
2023-04-14T15:23:04.184Z,3.50
2023-04-14T15:28:02.656Z,4.53
2023-04-14T15:33:02.505Z,4.07
2023-04-14T15:38:01.009Z,3.70
2023-04-14T15:42:59.477Z,3.80
2023-04-14T15:47:57.985Z,4.33
2023-04-14T15:52:58.836Z,4.93
2023-04-14T15:57:57.566Z,5.33
2023-04-14T16:02:56.248Z,4.63
2023-04-14T16:07:54.838Z,6.23
2023-04-14T16:12:54.408Z,5.53
2023-04-14T16:17:53.008Z,5.40
2023-04-14T16:22:51.532Z,4.70
2023-04-14T16:27:49.644Z,5.40
2023-04-14T16:32:49.791Z,5.00
2023-04-14T16:37:48.393Z,5.93
2023-04-14T16:42:46.746Z,5.30
2023-04-14T16:47:45.226Z,3.90
2023-04-14T16:52:45.053Z,4.20
2023-04-14T16:57:43.803Z,3.37
2023-04-14T17:02:42.807Z,4.40
2023-04-14T17:07:41.433Z,6.60
2023-04-14T17:12:42.844Z,3.53
2023-04-14T17:17:43.157Z,3.70
2023-04-14T17:22:41.646Z,5.80
2023-04-14T17:27:41.522Z,3.43
2023-04-14T17:32:40.734Z,4.43
2023-04-14T17:37:39.446Z,4.07
2023-04-14T17:42:39.006Z,4.90
2023-04-14T17:47:40.184Z,3.63
2023-04-14T17:52:38.830Z,3.90
2023-04-14T17:57:37.455Z,3.93
2023-04-14T18:02:38.672Z,6.70
2023-04-14T18:07:38.807Z,5.03
2023-04-14T18:12:37.351Z,4.90
2023-04-14T18:17:36.500Z,6.80
2023-04-14T18:22:35.734Z,6.87
2023-04-14T18:32:36.768Z,9.00
2023-04-14T18:37:35.001Z,6.97
2023-04-14T18:42:36.682Z,7.97
2023-04-14T18:47:34.925Z,5.80
2023-04-14T18:52:33.949Z,4.40
2023-04-14T18:57:32.090Z,7.37
2023-04-14T19:02:32.329Z,6.87
2023-04-14T19:07:30.569Z,9.70
2023-04-14T19:12:29.370Z,5.37
2023-04-14T19:17:28.801Z,5.47
2023-04-14T19:22:28.922Z,7.10
2023-04-14T19:27:27.650Z,6.03
2023-04-14T19:32:26.298Z,4.60
2023-04-14T19:37:24.858Z,6.27
2023-04-14T19:42:24.812Z,5.23
2023-04-14T19:47:23.031Z,4.87
2023-04-14T19:52:22.513Z,5.03
2023-04-14T19:57:22.196Z,4.50
2023-04-14T20:02:25.532Z,5.67
2023-04-14T20:07:29.324Z,5.37
2023-04-14T20:12:27.790Z,6.87
2023-04-14T20:17:28.007Z,6.30
2023-04-14T20:22:27.523Z,7.07
2023-04-14T20:27:25.682Z,7.50
2023-04-14T20:32:25.017Z,5.50
2023-04-14T20:37:24.904Z,7.70
2023-04-14T20:42:23.686Z,8.20
2023-04-14T20:47:21.910Z,8.67
2023-04-14T20:52:20.454Z,7.77
2023-04-14T20:57:20.509Z,9.37
2023-04-14T21:02:19.417Z,9.87
2023-04-14T21:07:18.022Z,12.33
2023-04-14T21:12:16.728Z,15.40
2023-04-14T21:17:16.634Z,11.63
2023-04-14T21:22:15.129Z,12.37
2023-04-14T21:27:13.684Z,12.03
2023-04-14T21:32:12.194Z,13.30
2023-04-14T21:37:19.021Z,13.53
2023-04-14T21:42:17.767Z,11.70
2023-04-14T21:47:16.872Z,14.43
2023-04-14T21:52:16.394Z,13.40
2023-04-14T21:57:15.697Z,12.23
2023-04-14T22:02:14.224Z,17.40
2023-04-14T22:07:12.767Z,14.60
2023-04-14T22:12:12.643Z,15.23
2023-04-14T22:17:11.455Z,17.10
2023-04-14T22:22:10.070Z,13.87
2023-04-14T22:27:08.811Z,16.13
2023-04-14T22:32:08.753Z,18.33
2023-04-14T22:37:07.540Z,16.47
2023-04-14T22:42:06.472Z,15.27
2023-04-14T22:47:05.397Z,13.20
2023-04-14T22:52:05.387Z,11.30
2023-04-14T22:57:03.983Z,12.90
2023-04-14T23:02:02.712Z,11.73
2023-04-14T23:07:01.024Z,11.17
2023-04-14T23:12:02.542Z,12.80
2023-04-14T23:17:01.289Z,11.67
2023-04-14T23:21:59.796Z,11.67
2023-04-14T23:26:58.614Z,11.93
2023-04-14T23:31:58.489Z,11.50
2023-04-14T23:36:57.033Z,11.60
2023-04-14T23:41:55.840Z,12.70
2023-04-14T23:46:54.495Z,12.83
2023-04-14T23:51:54.411Z,12.50
2023-04-14T23:56:53.162Z,12.43
